createdAt,value
2023-01-22T00:02:38.208Z,2.69
2023-01-22T00:12:46.011Z,1.52
2023-01-22T00:22:53.841Z,1.77
2023-01-22T00:33:01.713Z,1.76
2023-01-22T00:43:09.514Z,1.94
2023-01-22T00:53:17.348Z,2.13
2023-01-22T01:03:25.185Z,2.11
2023-01-22T01:13:33.034Z,1.7
2023-01-22T01:23:43.283Z,1.87
2023-01-22T01:33:41.166Z,2.52
2023-01-22T01:43:48.995Z,3.64
2023-01-22T01:53:56.983Z,3.88
2023-01-22T02:04:04.826Z,3.73
2023-01-22T02:14:12.705Z,3.77
2023-01-22T02:24:20.537Z,3.76
2023-01-22T02:34:29.427Z,3.8
2023-01-22T02:44:37.228Z,4.55
2023-01-22T02:54:45.079Z,3.85
2023-01-22T03:04:52.962Z,4.7
2023-01-22T03:15:01.273Z,5.02
2023-01-22T03:25:09.298Z,4.89
2023-01-22T03:35:17.192Z,4.95
2023-01-22T03:45:25.109Z,4.58
2023-01-22T03:55:33.248Z,4.43
2023-01-22T04:05:41.170Z,4.46
2023-01-22T04:15:49.132Z,4.59
2023-01-22T04:25:56.994Z,4.46
2023-01-22T04:36:04.856Z,3.84
2023-01-22T04:46:12.814Z,3.61
2023-01-22T04:56:20.539Z,3.22
2023-01-22T05:06:28.372Z,3.43
2023-01-22T05:16:36.356Z,2.99
2023-01-22T05:26:44.288Z,3.06
2023-01-22T05:36:54.550Z,2.44
2023-01-22T05:46:52.556Z,2.37
2023-01-22T05:57:00.550Z,2.62
2023-01-22T06:07:08.413Z,3
2023-01-22T06:17:16.725Z,2.49
2023-01-22T06:27:25.241Z,2.17
2023-01-22T06:37:33.147Z,1.97
2023-01-22T06:47:42.236Z,2.17
2023-01-22T06:57:50.420Z,3.51
2023-01-22T07:07:58.473Z,2.07
2023-01-22T07:18:06.563Z,3.09
2023-01-22T07:28:14.572Z,2.53
2023-01-22T07:38:22.752Z,3.46
2023-01-22T07:48:31.057Z,3.37
2023-01-22T07:58:39.511Z,3.57
2023-01-22T08:08:47.525Z,3.53
2023-01-22T08:18:55.741Z,3.01
2023-01-22T08:29:06.032Z,2.54
2023-01-22T08:39:10.521Z,2.21
2023-01-22T08:49:18.440Z,2.32
2023-01-22T08:59:28.435Z,2.74
2023-01-22T09:09:34.476Z,6.02
2023-01-22T09:19:44.229Z,3.49
2023-01-22T09:29:52.189Z,3.88
2023-01-22T09:40:00.312Z,3.92
2023-01-22T09:50:08.304Z,4.52
2023-01-22T10:00:16.207Z,5.1
2023-01-22T10:10:23.847Z,4.51
2023-01-22T10:20:31.629Z,4.7
2023-01-22T10:30:40.718Z,3.2
2023-01-22T10:40:48.634Z,3.26
2023-01-22T10:50:56.553Z,3.39
2023-01-22T11:01:06.101Z,2.99
2023-01-22T11:11:13.971Z,2.91
2023-01-22T11:21:24.785Z,3.23
2023-01-22T11:31:23.986Z,2.5
2023-01-22T11:41:31.941Z,3.89
2023-01-22T11:51:39.875Z,2.75
2023-01-22T12:01:52.839Z,2.5
2023-01-22T12:04:59.759Z,3.05
2023-01-22T12:14:07.655Z,3.16
2023-01-22T12:24:18.145Z,9.52
2023-01-22T12:34:16.482Z,3.31
2023-01-22T12:44:24.568Z,2.98
2023-01-22T12:54:32.653Z,3.88
2023-01-22T13:04:41.710Z,3.74
2023-01-22T13:14:51.950Z,3.79
2023-01-22T13:24:51.200Z,3.34
2023-01-22T13:34:59.303Z,5.97
2023-01-22T13:45:07.334Z,2.92
2023-01-22T13:55:15.574Z,2.32
2023-01-22T14:05:24.579Z,2.29
2023-01-22T14:15:35.079Z,1.88
2023-01-22T14:35:53.084Z,2.37
2023-01-22T14:45:41.025Z,1.55
2023-01-22T14:55:49.144Z,1.56
2023-01-22T15:05:59.190Z,1.54
2023-01-22T15:16:26.008Z,1.31
2023-01-22T15:26:11.384Z,1.86
2023-01-22T15:36:22.116Z,2.4
2023-01-22T15:46:28.440Z,1.79
2023-01-22T15:56:26.442Z,1.21
2023-01-22T16:06:34.942Z,3.1
2023-01-22T16:16:43.095Z,1.81
2023-01-22T16:26:52.093Z,6.45
2023-01-22T16:37:02.182Z,4.44
2023-01-22T16:47:02.406Z,1.58
2023-01-22T16:57:00.217Z,3.46
2023-01-22T17:07:07.633Z,4.84
2023-01-22T17:17:16.164Z,4.92
2023-01-22T17:27:24.201Z,4.22
2023-01-22T17:37:32.222Z,10.05
2023-01-22T17:47:40.258Z,6.7
2023-01-22T17:57:47.771Z,5.6
2023-01-22T18:07:55.758Z,7.43
2023-01-22T18:18:03.786Z,7.78
2023-01-22T18:28:12.018Z,9.65
2023-01-22T18:38:20.189Z,7.23
2023-01-22T18:48:28.166Z,20.54
2023-01-22T18:58:36.044Z,7.58
2023-01-22T19:08:43.768Z,6.79
2023-01-22T19:18:54.446Z,9.95
2023-01-22T19:28:55.282Z,8.24
2023-01-22T19:38:53.059Z,8.91
2023-01-22T19:49:03.168Z,6.95
2023-01-22T19:59:01.567Z,7.09
2023-01-22T20:09:09.931Z,6.52
2023-01-22T20:19:17.917Z,6.12
2023-01-22T20:29:25.917Z,5.16
2023-01-22T20:39:33.709Z,6.2
2023-01-22T20:49:43.054Z,6.13
2023-01-22T20:59:51.592Z,6.94
2023-01-22T21:09:59.550Z,6.8
2023-01-22T21:20:07.575Z,6.39
2023-01-22T21:30:15.615Z,7.26
2023-01-22T21:40:23.665Z,7.79
2023-01-22T21:50:31.826Z,8.54
2023-01-22T22:00:43.626Z,6.89
2023-01-22T22:10:42.691Z,7.15
2023-01-22T22:20:52.167Z,7.06
2023-01-22T22:31:00.392Z,7.18
2023-01-22T22:41:08.416Z,7.09
2023-01-22T22:51:16.690Z,6.68
2023-01-22T23:01:24.880Z,7.09
2023-01-22T23:11:33.029Z,7.5
2023-01-22T23:21:41.075Z,7.56
2023-01-22T23:31:49.268Z,7.56
2023-01-22T23:41:57.189Z,7.47
2023-01-22T23:52:05.200Z,7.83
